Latest Weather Observations for South Channel Island

IDV60801

Issued at 8:31 am EST Sunday 5 July 2015 (issued every 30 minutes, with the page automatically refreshed every 10 minutes)

About weather observations | Map of weather stations | Latest weather observations for VIC | Other Formats
Station Details ID: 086344 Name: SOUTH CHANNEL ISLAND Lat: -38.31 Lon: 144.80 Height: 9.0 m
Data from the previous 72 hours. | See also: Recent months for locations in Victoria
Date/Time
EST
Temp
°C
App
Temp
°C
Dew
Point
Rel
Hum
%
Delta-T
°C
Wind Press
QNH
hPa
Press
MSL
hPa
Rain
since 9 am
mm
Dir
 
Spd
km/h
Gust
km/h
Spd
kts
Gust
kts
05/08:30am - - - - - N 39 43 21 23 - - -
05/08:00am - - - - - N 37 39 20 21 - - -
05/07:30am - - - - - N 35 39 19 21 - - -
05/07:00am - - - - - N 35 41 19 22 - - -
05/06:30am - - - - - N 33 37 18 20 - - -
05/06:00am - - - - - N 32 35 17 19 - - -
05/05:30am - - - - - N 35 39 19 21 - - -
05/05:00am - - - - - N 35 39 19 21 - - -
05/04:30am - - - - - N 39 44 21 24 - - -
05/04:00am - - - - - N 41 48 22 26 - - -
05/03:30am - - - - - N 37 44 20 24 - - -
05/03:00am - - - - - N 39 44 21 24 - - -
05/02:30am - - - - - N 37 39 20 21 - - -
05/02:00am - - - - - N 33 37 18 20 - - -
05/01:30am - - - - - N 30 33 16 18 - - -
05/01:00am - - - - - N 28 32 15 17 - - -
05/12:30am - - - - - N 28 32 15 17 - - -
05/12:00am - - - - - N 32 35 17 19 - - -
 
Date/Time
EST
Temp
°C
App
Temp
°C
Dew
Point
Rel
Hum
%
Delta-T
°C
Wind Press
QNH
hPa
Press
MSL
hPa
Rain
since 9 am
mm
Dir
 
Spd
km/h
Gust
km/h
Spd
kts
Gust
kts
04/11:30pm - - - - - N 33 37 18 20 - - -
04/11:00pm - - - - - N 28 33 15 18 - - -
04/10:30pm - - - - - N 35 39 19 21 - - -
04/10:00pm - - - - - N 30 33 16 18 - - -
04/09:30pm - - - - - N 32 35 17 19 - - -
04/09:00pm - - - - - N 30 33 16 18 - - -
04/08:30pm - - - - - N 32 33 17 18 - - -
04/08:00pm - - - - - N 32 33 17 18 - - -
04/07:30pm - - - - - N 32 35 17 19 - - -
04/07:00pm - - - - - N 30 35 16 19 - - -
04/06:30pm - - - - - N 35 39 19 21 - - -
04/06:00pm - - - - - N 30 33 16 18 - - -
04/05:30pm - - - - - N 32 35 17 19 - - -
04/05:00pm - - - - - N 32 35 17 19 - - -
04/04:30pm - - - - - N 24 33 13 18 - - -
04/04:00pm - - - - - NNW 24 30 13 16 - - -
04/03:30pm - - - - - N 30 33 16 18 - - -
04/03:00pm - - - - - N 26 32 14 17 - - -
04/02:30pm - - - - - N 26 30 14 16 - - -
04/02:00pm - - - - - N 24 28 13 15 - - -
04/01:30pm - - - - - NNW 24 28 13 15 - - -
04/01:00pm - - - - - N 20 26 11 14 - - -
04/12:30pm - - - - - N 20 26 11 14 - - -
04/12:00pm - - - - - NNW 20 28 11 15 - - -
04/11:30am - - - - - NNW 19 28 10 15 - - -
04/11:00am - - - - - NNW 17 24 9 13 - - -
04/10:30am - - - - - N 19 22 10 12 - - -
04/10:00am - - - - - NNW 19 26 10 14 - - -
04/09:30am - - - - - NNW 20 28 11 15 - - -
04/09:00am - - - - - NNW 22 26 12 14 - - -
04/08:30am - - - - - NNW 28 35 15 19 - - -
04/08:00am - - - - - NNW 28 32 15 17 - - -
04/07:30am - - - - - NNW 28 30 15 16 - - -
04/07:00am - - - - - NNW 30 33 16 18 - - -
04/06:30am - - - - - N 32 35 17 19 - - -
04/06:00am - - - - - NNW 33 37 18 20 - - -
04/05:30am - - - - - NNW 28 33 15 18 - - -
04/05:00am - - - - - NNW 30 35 16 19 - - -
04/04:30am - - - - - NNW 28 30 15 16 - - -
04/04:00am - - - - - NNW 28 32 15 17 - - -
04/03:30am - - - - - NNW 32 37 17 20 - - -
04/03:00am - - - - - NNW 33 39 18 21 - - -
04/02:30am - - - - - NNW 33 37 18 20 - - -
04/02:00am - - - - - NNW 33 37 18 20 - - -
04/01:30am - - - - - NNW 32 35 17 19 - - -
04/01:00am - - - - - NNW 32 37 17 20 - - -
04/12:30am - - - - - NNW 28 33 15 18 - - -
04/12:00am - - - - - NW 30 33 16 18 - - -
 
Date/Time
EST
Temp
°C
App
Temp
°C
Dew
Point
Rel
Hum
%
Delta-T
°C
Wind Press
QNH
hPa
Press
MSL
hPa
Rain
since 9 am
mm
Dir
 
Spd
km/h
Gust
km/h
Spd
kts
Gust
kts
03/11:30pm - - - - - NNW 32 35 17 19 - - -
03/11:00pm - - - - - NNW 32 33 17 18 - - -
03/10:30pm - - - - - NNW 30 33 16 18 - - -
03/10:00pm - - - - - NNW 32 33 17 18 - - -
03/09:30pm - - - - - NNW 30 33 16 18 - - -
03/09:00pm - - - - - NNW 28 32 15 17 - - -
03/08:30pm - - - - - NW 32 35 17 19 - - -
03/08:00pm - - - - - NW 32 35 17 19 - - -
03/07:30pm - - - - - NW 32 37 17 20 - - -
03/07:00pm - - - - - NW 32 35 17 19 - - -
03/06:30pm - - - - - NW 33 39 18 21 - - -
03/06:00pm - - - - - WNW 28 33 15 18 - - -
03/05:30pm - - - - - WNW 28 35 15 19 - - -
03/05:00pm - - - - - WNW 32 39 17 21 - - -
03/04:30pm - - - - - WNW 28 33 15 18 - - -
03/04:00pm - - - - - WNW 33 41 18 22 - - -
03/03:30pm - - - - - WNW 28 39 15 21 - - -
03/03:00pm - - - - - WNW 30 33 16 18 - - -
03/02:30pm - - - - - WNW 30 37 16 20 - - -
03/02:00pm - - - - - W 32 33 17 18 - - -
03/01:30pm - - - - - W 32 35 17 19 - - -
03/01:00pm - - - - - WNW 26 30 14 16 - - -
03/12:30pm - - - - - W 28 32 15 17 - - -
03/12:00pm - - - - - WNW 28 33 15 18 - - -
03/11:30am - - - - - WNW 33 35 18 19 - - -
03/11:00am - - - - - WNW 32 35 17 19 - - -
03/10:30am - - - - - W 30 33 16 18 - - -
03/10:00am - - - - - W 35 39 19 21 - - -
03/09:30am - - - - - W 35 41 19 22 - - -
03/09:00am - - - - - NW 20 26 11 14 - - -
03/08:30am - - - - - WNW 13 17 7 9 - - -
03/08:00am - - - - - WNW 19 24 10 13 - - -
03/07:30am - - - - - WNW 22 26 12 14 - - -
03/07:00am - - - - - NW 19 22 10 12 - - -
03/06:30am - - - - - NW 22 26 12 14 - - -
03/06:00am - - - - - NW 17 20 9 11 - - -
03/05:30am - - - - - SW 9 17 5 9 - - -
03/05:00am - - - - - SSE 9 13 5 7 - - -
03/04:30am - - - - - SSE 26 33 14 18 - - -
03/04:00am - - - - - SSW 28 35 15 19 - - -
03/03:30am - - - - - SW 17 26 9 14 - - -
03/03:00am - - - - - SSW 19 28 10 15 - - -
03/02:30am - - - - - SW 33 44 18 24 - - -
03/02:19am - - - - - SSW 33 43 18 23 - - -
03/02:00am - - - - - SSW 30 35 16 19 - - -
03/01:30am - - - - - SW 17 24 9 13 - - -
03/01:00am - - - - - SW 19 26 10 14 - - -
03/12:34am - - - - - SSW 28 46 15 25 - - -
03/12:30am - - - - - SSW 30 35 16 19 - - -
03/12:00am - - - - - SSW 33 41 18 22 - - -
 
Date/Time
EST
Temp
°C
App
Temp
°C
Dew
Point
Rel
Hum
%
Delta-T
°C
Wind Press
QNH
hPa
Press
MSL
hPa
Rain
since 9 am
mm
Dir
 
Spd
km/h
Gust
km/h
Spd
kts
Gust
kts
02/11:30pm - - - - - SW 32 41 17 22 - - -
02/11:00pm - - - - - SW 33 41 18 22 - - -
02/10:30pm - - - - - SW 28 33 15 18 - - -
02/10:00pm - - - - - SW 39 52 21 28 - - -
02/09:30pm - - - - - SSW 35 46 19 25 - - -
02/09:07pm - - - - - SSW 35 44 19 24 - - -
02/09:00pm - - - - - SW 32 43 17 23 - - -
02/08:30pm - - - - - WSW 30 41 16 22 - - -
02/08:00pm - - - - - SW 39 50 21 27 - - -
02/07:30pm - - - - - SSW 35 41 19 22 - - -
02/07:00pm - - - - - SW 39 46 21 25 - - -
02/06:57pm - - - - - SW 37 46 20 25 - - -
02/06:30pm - - - - - SSW 24 28 13 15 - - -
02/06:00pm - - - - - SW 39 52 21 28 - - -
02/05:30pm - - - - - SSW 52 59 28 32 - - -
02/05:00pm - - - - - SSW 33 44 18 24 - - -
02/04:52pm - - - - - SW 37 56 20 30 - - -
02/04:30pm - - - - - SW 39 48 21 26 - - -
02/04:00pm - - - - - SSW 44 54 24 29 - - -
02/03:30pm - - - - - SSW 43 48 23 26 - - -
02/03:00pm - - - - - SW 50 56 27 30 - - -
02/02:30pm - - - - - SW 46 57 25 31 - - -
02/02:00pm - - - - - SW 46 56 25 30 - - -
02/01:30pm - - - - - SW 52 61 28 33 - - -
02/01:00pm - - - - - SW 52 67 28 36 - - -
02/12:30pm - - - - - SW 54 69 29 37 - - -
02/12:00pm - - - - - SW 54 70 29 38 - - -
02/11:38am - - - - - SW 56 74 30 40 - - -
02/11:30am - - - - - SW 57 69 31 37 - - -
02/11:00am - - - - - SW 59 72 32 39 - - -
02/10:30am - - - - - SW 63 76 34 41 - - -
02/10:02am - - - - - SW 65 83 35 45 - - -
02/10:00am - - - - - SW 63 83 34 45 - - -
02/09:55am - - - - - WSW 57 83 31 45 - - -
02/09:35am - - - - - WSW 52 70 28 38 - - -
02/09:30am - - - - - WSW 56 70 30 38 - - -
02/09:06am - - - - - WSW 61 98 33 53 - - -
02/09:05am - - - - - WSW 59 78 32 42 - - -
02/09:00am - - - - - WSW 61 72 33 39 - - -
02/08:47am - - - - - WSW 57 95 31 51 - - -
02/08:45am - - - - - WSW 52 85 28 46 - - -

Other Formats:

Comma delimited format used in spreadsheet applications
http://www.bom.gov.au/fwo/IDV60801/IDV60801.94853.axf

JavaScript Object Notation format (JSON) in row-major order
http://www.bom.gov.au/fwo/IDV60801/IDV60801.94853.json